Time;durP1;ratioP1;P1;durP2;ratioP2;P2;SDS_P1;SDS_P2;PMS_P1;PMS_P2;Temp;Humidity;BMP_temperature;BMP_pressure;BME280_temperature;BME280_humidity;BME280_pressure;Samples;Min_cycle;Max_cycle;Signal;HPM_P1;HPM_P2
2021/10/04 00:02:23;;;;;;;0.45;0.10;;;;;;;;;;4857253;29;20050;-74
2021/10/04 00:04:51;;;;;;;0.30;0.20;;;;;;;;;;4858159;29;20054;-74
2021/10/04 00:07:18;;;;;;;0.20;0.20;;;;;;;;;;4854609;29;20058;-74
2021/10/04 00:09:46;;;;;;;0.43;0.10;;;;;;;;;;4857018;29;20175;-75
2021/10/04 00:12:13;;;;;;;0.10;0.10;;;;;;;;;;4853336;29;20080;-74
2021/10/04 00:14:41;;;;;;;0.40;0.20;;;;;;;;;;4838699;29;20110;-75
2021/10/04 00:17:08;;;;;;;0.68;0.20;;;;;;;;;;4874677;29;20057;-74
2021/10/04 00:19:35;;;;;;;0.47;0.10;;;;;;;;;;4849000;29;20117;-75
2021/10/04 00:22:03;;;;;;;0.60;0.10;;;;;;;;;;4861321;29;20051;-75
2021/10/04 00:24:30;;;;;;;0.20;0.20;;;;;;;;;;4858834;29;20128;-75
2021/10/04 00:26:58;;;;;;;1.05;0.20;;;;;;;;;;4872451;29;20053;-75
2021/10/04 00:29:25;;;;;;;0.35;0.13;;;;;;;;;;4876469;29;20053;-74
2021/10/04 00:31:53;;;;;;;0.75;0.38;;;;;;;;;;4876671;29;20080;-75
2021/10/04 00:34:20;;;;;;;1.48;0.30;;;;;;;;;;4873055;29;20426;-75
2021/10/04 00:36:48;;;;;;;1.15;0.30;;;;;;;;;;4873220;29;20047;-74
2021/10/04 00:39:15;;;;;;;0.70;0.30;;;;;;;;;;4863150;29;20123;-74
2021/10/04 00:41:43;;;;;;;0.85;0.30;;;;;;;;;;4860882;29;20144;-75
2021/10/04 00:44:11;;;;;;;2.05;0.30;;;;;;;;;;4880617;29;20116;-74
2021/10/04 00:46:38;;;;;;;0.50;0.20;;;;;;;;;;4866330;29;20075;-74
2021/10/04 00:49:05;;;;;;;0.93;0.40;;;;;;;;;;4881676;29;20092;-74
2021/10/04 00:51:33;;;;;;;0.65;0.20;;;;;;;;;;4879575;29;20067;-75
2021/10/04 00:54:00;;;;;;;0.95;0.20;;;;;;;;;;4881937;29;20052;-74
2021/10/04 00:56:28;;;;;;;0.43;0.10;;;;;;;;;;4874330;29;20109;-74
2021/10/04 00:58:55;;;;;;;0.70;0.20;;;;;;;;;;4858003;29;20108;-74
2021/10/04 01:01:28;;;;;;;0.75;0.30;;;;;;;;;;4860498;29;20051;-74
2021/10/04 01:04:00;;;;;;;1.75;0.30;;;;;;;;;;4871988;29;20049;-75
2021/10/04 01:06:28;;;;;;;0.30;0.20;;;;;;;;;;4855367;29;20522;-74
2021/10/04 01:08:56;;;;;;;0.50;0.20;;;;;;;;;;4869945;29;20097;-74
2021/10/04 01:11:24;;;;;;;1.20;0.20;;;;;;;;;;4869176;29;20094;-75
2021/10/04 01:13:51;;;;;;;0.50;0.25;;;;;;;;;;4871961;29;20047;-75
2021/10/04 01:16:19;;;;;;;0.40;0.10;;;;;;;;;;4877500;29;20073;-74
2021/10/04 01:18:47;;;;;;;1.02;0.20;;;;;;;;;;4858328;29;20045;-75
2021/10/04 01:21:14;;;;;;;0.98;0.20;;;;;;;;;;4859459;29;20208;-75
2021/10/04 01:23:42;;;;;;;1.02;0.40;;;;;;;;;;4880106;29;20086;-75
2021/10/04 01:26:12;;;;;;;2.05;0.50;;;;;;;;;;4879430;29;20136;-74
2021/10/04 01:28:39;;;;;;;0.40;0.10;;;;;;;;;;4872448;29;20040;-74
2021/10/04 01:31:07;;;;;;;0.93;0.20;;;;;;;;;;4872700;29;20111;-74
2021/10/04 01:33:34;;;;;;;0.30;0.10;;;;;;;;;;4862728;29;20127;-74
2021/10/04 01:36:02;;;;;;;0.80;0.10;;;;;;;;;;4863524;29;20089;-74
2021/10/04 01:38:29;;;;;;;0.55;0.13;;;;;;;;;;4862966;29;20117;-73
2021/10/04 01:40:56;;;;;;;1.40;0.22;;;;;;;;;;4863057;29;20068;-74
2021/10/04 01:43:24;;;;;;;0.35;0.10;;;;;;;;;;4880043;29;20081;-74
2021/10/04 01:45:51;;;;;;;0.35;0.17;;;;;;;;;;4845260;29;20041;-75
2021/10/04 01:48:18;;;;;;;0.20;0.10;;;;;;;;;;4863123;29;20041;-74
2021/10/04 01:50:46;;;;;;;2.03;0.28;;;;;;;;;;4847604;29;20049;-75
2021/10/04 01:53:13;;;;;;;0.15;0.10;;;;;;;;;;4871129;29;20511;-74
2021/10/04 01:55:40;;;;;;;0.60;0.20;;;;;;;;;;4859731;29;20041;-73
2021/10/04 01:58:08;;;;;;;0.22;0.10;;;;;;;;;;4877881;29;20101;-74
2021/10/04 02:00:35;;;;;;;0.20;0.10;;;;;;;;;;4846869;29;20069;-74
2021/10/04 02:03:03;;;;;;;0.55;0.10;;;;;;;;;;4860169;29;20041;-74
2021/10/04 02:05:32;;;;;;;0.20;0.10;;;;;;;;;;4862449;29;20041;-74
2021/10/04 02:07:59;;;;;;;1.75;0.20;;;;;;;;;;4861403;29;20110;-74
2021/10/04 02:10:31;;;;;;;1.73;0.10;;;;;;;;;;4862508;29;20091;-74
2021/10/04 02:13:00;;;;;;;0.10;0.10;;;;;;;;;;4879426;29;20053;-74
2021/10/04 02:15:28;;;;;;;0.10;0.00;;;;;;;;;;4878650;29;20578;-74
2021/10/04 02:17:56;;;;;;;0.20;0.10;;;;;;;;;;4862253;29;20049;-74
2021/10/04 02:20:25;;;;;;;0.10;0.10;;;;;;;;;;4862598;29;20446;-74
2021/10/04 02:22:52;;;;;;;0.20;0.20;;;;;;;;;;4861944;29;20109;-74
2021/10/04 02:25:20;;;;;;;0.15;0.10;;;;;;;;;;4853761;29;20048;-74
2021/10/04 02:27:47;;;;;;;0.32;0.08;;;;;;;;;;4854923;29;20097;-74
2021/10/04 02:30:25;;;;;;;0.30;0.20;;;;;;;;;;4846899;29;20132;-74
2021/10/04 02:32:52;;;;;;;0.22;0.10;;;;;;;;;;4876685;29;20123;-74
2021/10/04 02:35:20;;;;;;;0.40;0.10;;;;;;;;;;4878439;29;20041;-74
2021/10/04 02:37:48;;;;;;;0.70;0.10;;;;;;;;;;4862047;29;20542;-74
2021/10/04 02:40:15;;;;;;;2.75;0.20;;;;;;;;;;4877322;29;20398;-74
2021/10/04 02:42:43;;;;;;;2.25;0.47;;;;;;;;;;4878437;29;20144;-74
2021/10/04 02:45:11;;;;;;;0.47;0.10;;;;;;;;;;4861510;29;20057;-74
2021/10/04 02:47:38;;;;;;;0.20;0.10;;;;;;;;;;4878201;29;20041;-73
2021/10/04 02:50:07;;;;;;;0.57;0.13;;;;;;;;;;4861609;29;20097;-73
2021/10/04 02:52:35;;;;;;;0.52;0.10;;;;;;;;;;4877858;29;20127;-74
2021/10/04 02:55:03;;;;;;;1.33;0.10;;;;;;;;;;4877450;29;20048;-73
2021/10/04 02:57:30;;;;;;;0.45;0.15;;;;;;;;;;4859427;29;20120;-73
2021/10/04 02:59:57;;;;;;;1.38;0.10;;;;;;;;;;4877561;29;20076;-73
2021/10/04 03:02:25;;;;;;;0.47;0.10;;;;;;;;;;4847160;29;20041;-73
2021/10/04 03:04:53;;;;;;;0.15;0.00;;;;;;;;;;4865707;29;20479;-73
2021/10/04 03:07:20;;;;;;;0.03;0.03;;;;;;;;;;4861842;29;20057;-73
2021/10/04 03:09:47;;;;;;;1.30;0.10;;;;;;;;;;4860857;29;20144;-73
2021/10/04 03:12:15;;;;;;;0.60;0.10;;;;;;;;;;4861421;29;20048;-73
2021/10/04 03:14:42;;;;;;;0.57;0.10;;;;;;;;;;4860890;29;20085;-73
2021/10/04 03:17:10;;;;;;;0.25;0.10;;;;;;;;;;4877626;29;20072;-73
2021/10/04 03:19:37;;;;;;;1.95;0.13;;;;;;;;;;4860767;29;20132;-73
2021/10/04 03:22:05;;;;;;;0.32;0.10;;;;;;;;;;4877203;29;20045;-73
2021/10/04 03:24:33;;;;;;;0.30;0.10;;;;;;;;;;4877769;29;20073;-73
2021/10/04 03:27:00;;;;;;;0.22;0.10;;;;;;;;;;4861170;29;20049;-73
2021/10/04 03:29:28;;;;;;;0.20;0.10;;;;;;;;;;4861165;29;20055;-73
2021/10/04 03:31:56;;;;;;;0.10;0.08;;;;;;;;;;4877077;29;20127;-73
2021/10/04 03:34:23;;;;;;;0.50;0.10;;;;;;;;;;4861417;29;20410;-73
2021/10/04 03:36:50;;;;;;;1.55;0.10;;;;;;;;;;4860315;29;20124;-73
2021/10/04 03:39:18;;;;;;;0.40;0.30;;;;;;;;;;4861342;29;20166;-73
2021/10/04 03:41:46;;;;;;;0.80;0.10;;;;;;;;;;4873257;29;20056;-73
2021/10/04 03:44:13;;;;;;;0.47;0.20;;;;;;;;;;4860589;29;20482;-74
2021/10/04 03:46:40;;;;;;;0.45;0.10;;;;;;;;;;4877755;29;20079;-74
2021/10/04 03:49:08;;;;;;;0.73;0.10;;;;;;;;;;4863975;29;20057;-74
2021/10/04 03:51:35;;;;;;;0.55;0.20;;;;;;;;;;4877759;29;20037;-73
2021/10/04 03:54:03;;;;;;;0.10;0.10;;;;;;;;;;4877248;29;20116;-73
2021/10/04 03:56:30;;;;;;;0.40;0.10;;;;;;;;;;4878527;29;20434;-74
2021/10/04 03:58:57;;;;;;;0.20;0.10;;;;;;;;;;4846567;29;20087;-73
2021/10/04 04:01:26;;;;;;;0.25;0.10;;;;;;;;;;4861100;29;20077;-73
2021/10/04 04:03:54;;;;;;;2.35;0.32;;;;;;;;;;4877327;29;20048;-73
2021/10/04 04:06:22;;;;;;;0.15;0.10;;;;;;;;;;4860899;29;20064;-73
2021/10/04 04:08:49;;;;;;;0.08;0.00;;;;;;;;;;4877056;29;20045;-73
2021/10/04 04:11:16;;;;;;;0.10;0.00;;;;;;;;;;4860578;29;20041;-73
2021/10/04 04:13:44;;;;;;;0.88;0.10;;;;;;;;;;4860878;29;20049;-74
2021/10/04 04:16:12;;;;;;;0.20;0.10;;;;;;;;;;4877183;29;20137;-74
2021/10/04 04:18:39;;;;;;;0.60;0.17;;;;;;;;;;4845190;29;20049;-74
2021/10/04 04:21:07;;;;;;;0.80;0.17;;;;;;;;;;4876026;29;20045;-74
2021/10/04 04:23:37;;;;;;;0.30;0.10;;;;;;;;;;4860524;29;20049;-74
2021/10/04 04:26:04;;;;;;;0.70;0.10;;;;;;;;;;4876923;29;20113;-74
2021/10/04 04:28:33;;;;;;;2.17;0.10;;;;;;;;;;4873881;29;20046;-74
2021/10/04 04:31:00;;;;;;;0.32;0.10;;;;;;;;;;4866173;29;20120;-73
2021/10/04 04:33:28;;;;;;;0.10;0.08;;;;;;;;;;4875634;29;20510;-74
2021/10/04 04:35:55;;;;;;;0.93;0.10;;;;;;;;;;4877330;29;20044;-73
2021/10/04 04:38:22;;;;;;;1.00;0.13;;;;;;;;;;4876555;29;20515;-73
2021/10/04 04:40:50;;;;;;;1.00;0.20;;;;;;;;;;4877047;29;20080;-73
2021/10/04 04:43:17;;;;;;;0.90;0.10;;;;;;;;;;4860561;29;20096;-73
2021/10/04 04:45:45;;;;;;;0.60;0.10;;;;;;;;;;4859737;29;20049;-73
2021/10/04 04:48:12;;;;;;;0.68;0.00;;;;;;;;;;4860497;29;20056;-73
2021/10/04 04:50:39;;;;;;;1.98;0.10;;;;;;;;;;4876275;29;20122;-73
2021/10/04 04:53:07;;;;;;;1.70;0.10;;;;;;;;;;4877148;29;20053;-73
2021/10/04 04:55:34;;;;;;;1.25;0.10;;;;;;;;;;4860876;29;20169;-73
2021/10/04 04:58:01;;;;;;;0.47;0.10;;;;;;;;;;4857867;29;20560;-73
2021/10/04 05:00:29;;;;;;;0.32;0.10;;;;;;;;;;4851195;29;20098;-73
2021/10/04 05:02:56;;;;;;;0.17;0.10;;;;;;;;;;4859909;29;20057;-73
2021/10/04 05:05:24;;;;;;;1.05;0.10;;;;;;;;;;4860103;29;20453;-73
2021/10/04 05:07:51;;;;;;;0.55;0.15;;;;;;;;;;4876589;29;20068;-73
2021/10/04 05:10:18;;;;;;;0.52;0.15;;;;;;;;;;4863837;29;20120;-73
2021/10/04 05:12:46;;;;;;;0.82;0.17;;;;;;;;;;4863149;29;20052;-73
2021/10/04 05:15:13;;;;;;;0.65;0.10;;;;;;;;;;4862940;29;20462;-73
2021/10/04 05:17:41;;;;;;;0.90;0.10;;;;;;;;;;4876921;29;20116;-73
2021/10/04 05:20:09;;;;;;;1.35;0.10;;;;;;;;;;4879894;29;20091;-72
2021/10/04 05:22:37;;;;;;;0.10;0.10;;;;;;;;;;4879141;29;20473;-72
2021/10/04 05:25:05;;;;;;;0.75;0.17;;;;;;;;;;4879875;29;20055;-72
2021/10/04 05:27:33;;;;;;;1.63;0.10;;;;;;;;;;4879953;29;20087;-72
2021/10/04 05:30:00;;;;;;;1.05;0.10;;;;;;;;;;4879236;29;20451;-73
2021/10/04 05:32:27;;;;;;;0.38;0.20;;;;;;;;;;4879950;29;20134;-73
2021/10/04 05:34:58;;;;;;;0.15;0.10;;;;;;;;;;4877727;29;20044;-72
2021/10/04 05:37:25;;;;;;;0.10;0.00;;;;;;;;;;4870884;29;20048;-71
2021/10/04 05:39:53;;;;;;;0.30;0.10;;;;;;;;;;4879409;29;20439;-72
2021/10/04 05:42:20;;;;;;;1.85;0.10;;;;;;;;;;4847486;29;20057;-72
2021/10/04 05:44:49;;;;;;;0.22;0.10;;;;;;;;;;4862831;29;20045;-72
2021/10/04 05:47:17;;;;;;;0.40;0.10;;;;;;;;;;4862749;29;20127;-72
2021/10/04 05:49:45;;;;;;;0.35;0.00;;;;;;;;;;4862130;29;20360;-72
2021/10/04 05:52:12;;;;;;;0.10;0.10;;;;;;;;;;4879347;29;20101;-72
2021/10/04 05:54:39;;;;;;;0.40;0.10;;;;;;;;;;4862055;29;20426;-72
2021/10/04 05:57:07;;;;;;;0.93;0.08;;;;;;;;;;4862382;29;20093;-72
2021/10/04 05:59:34;;;;;;;0.22;0.10;;;;;;;;;;4877619;29;20041;-72
2021/10/04 06:02:01;;;;;;;0.82;0.20;;;;;;;;;;4866419;29;20051;-71
2021/10/04 06:04:29;;;;;;;0.47;0.20;;;;;;;;;;4876371;29;20067;-71
2021/10/04 06:06:56;;;;;;;1.13;0.10;;;;;;;;;;4863984;29;20906;-71
2021/10/04 06:09:23;;;;;;;0.50;0.10;;;;;;;;;;4848845;29;20047;-71
2021/10/04 06:11:51;;;;;;;0.90;0.10;;;;;;;;;;4874256;29;20041;-71
2021/10/04 06:14:18;;;;;;;0.30;0.10;;;;;;;;;;4878038;29;20053;-71
2021/10/04 06:16:45;;;;;;;0.43;0.10;;;;;;;;;;4878948;29;20056;-71
2021/10/04 06:19:13;;;;;;;0.32;0.10;;;;;;;;;;4861246;29;20574;-72
2021/10/04 06:21:40;;;;;;;0.90;0.20;;;;;;;;;;4862592;29;20105;-71
2021/10/04 06:24:07;;;;;;;1.40;0.20;;;;;;;;;;4874338;29;20151;-72
2021/10/04 06:26:35;;;;;;;0.25;0.10;;;;;;;;;;4863045;29;20068;-72
2021/10/04 06:29:02;;;;;;;0.55;0.10;;;;;;;;;;4877743;29;20048;-71
2021/10/04 06:31:30;;;;;;;0.63;0.10;;;;;;;;;;4878288;29;20037;-71
2021/10/04 06:33:57;;;;;;;0.47;0.10;;;;;;;;;;4877918;29;20037;-72
2021/10/04 06:36:25;;;;;;;0.40;0.20;;;;;;;;;;4875993;29;20519;-74
2021/10/04 06:38:52;;;;;;;0.38;0.20;;;;;;;;;;4861847;29;20056;-73
2021/10/04 06:41:19;;;;;;;0.20;0.10;;;;;;;;;;4881438;29;20468;-76
2021/10/04 06:43:47;;;;;;;0.50;0.10;;;;;;;;;;4868902;29;20048;-73
2021/10/04 06:46:14;;;;;;;0.63;0.20;;;;;;;;;;4832779;29;20051;-73
2021/10/04 06:48:41;;;;;;;0.88;0.20;;;;;;;;;;4874070;29;20112;-73
2021/10/04 06:51:09;;;;;;;0.40;0.17;;;;;;;;;;4885468;29;20057;-73
2021/10/04 06:53:37;;;;;;;0.50;0.30;;;;;;;;;;4856704;29;20053;-74
2021/10/04 06:56:04;;;;;;;0.50;0.20;;;;;;;;;;4881406;29;20037;-73
2021/10/04 06:58:31;;;;;;;0.50;0.10;;;;;;;;;;4862021;29;20137;-75
2021/10/04 07:00:59;;;;;;;0.38;0.10;;;;;;;;;;4875218;29;20045;-75
2021/10/04 07:03:26;;;;;;;1.08;0.20;;;;;;;;;;4853495;29;20072;-75
2021/10/04 07:05:55;;;;;;;0.17;0.10;;;;;;;;;;4878343;29;20041;-81
2021/10/04 07:08:23;;;;;;;1.05;0.20;;;;;;;;;;4878250;29;20684;-75
2021/10/04 07:10:50;;;;;;;0.40;0.10;;;;;;;;;;4878452;29;20117;-75
2021/10/04 07:13:17;;;;;;;0.98;0.20;;;;;;;;;;4861780;29;20079;-78
2021/10/04 07:15:44;;;;;;;0.17;0.10;;;;;;;;;;4879221;29;20097;-78
2021/10/04 07:18:12;;;;;;;0.13;0.10;;;;;;;;;;4859096;29;20152;-78
2021/10/04 07:20:39;;;;;;;0.77;0.10;;;;;;;;;;4861041;29;20132;-76
2021/10/04 07:23:07;;;;;;;0.85;0.25;;;;;;;;;;4860509;29;20045;-76
2021/10/04 07:25:35;;;;;;;1.90;0.15;;;;;;;;;;4861525;29;20506;-78
2021/10/04 07:28:03;;;;;;;1.15;0.28;;;;;;;;;;4861235;29;20053;-79
2021/10/04 07:30:31;;;;;;;1.65;0.20;;;;;;;;;;4860350;29;20105;-78
2021/10/04 07:33:00;;;;;;;0.40;0.10;;;;;;;;;;4860767;29;20045;-78
2021/10/04 07:35:27;;;;;;;0.40;0.10;;;;;;;;;;4848441;29;20069;-77
2021/10/04 07:37:55;;;;;;;0.30;0.10;;;;;;;;;;4874948;29;20049;-77
2021/10/04 07:40:22;;;;;;;0.95;0.15;;;;;;;;;;4860323;29;20048;-77
2021/10/04 07:42:50;;;;;;;2.10;0.10;;;;;;;;;;4860348;29;20333;-77
2021/10/04 07:45:18;;;;;;;0.65;0.20;;;;;;;;;;4861324;29;20065;-80
2021/10/04 07:47:45;;;;;;;0.47;0.15;;;;;;;;;;4858087;29;20127;-78
2021/10/04 07:50:16;;;;;;;1.13;0.20;;;;;;;;;;4843981;29;20102;-77
2021/10/04 07:52:44;;;;;;;1.90;0.75;;;;;;;;;;4859844;29;20118;-77
2021/10/04 07:55:12;;;;;;;0.95;0.10;;;;;;;;;;4853685;29;20066;-76
2021/10/04 07:57:40;;;;;;;1.63;0.40;;;;;;;;;;4851217;29;20070;-77
2021/10/04 08:00:08;;;;;;;1.17;0.20;;;;;;;;;;4858546;29;20049;-77
2021/10/04 08:02:41;;;;;;;0.50;0.20;;;;;;;;;;4854974;29;20140;-77
2021/10/04 08:05:08;;;;;;;0.77;0.13;;;;;;;;;;4859241;29;20049;-78
2021/10/04 08:07:36;;;;;;;1.13;0.10;;;;;;;;;;4858655;29;20461;-77
2021/10/04 08:10:05;;;;;;;0.30;0.10;;;;;;;;;;4853091;29;20042;-80
2021/10/04 08:12:33;;;;;;;0.77;0.50;;;;;;;;;;4861728;29;20091;-77
2021/10/04 08:15:00;;;;;;;1.35;0.28;;;;;;;;;;4850331;29;20399;-77
2021/10/04 08:17:28;;;;;;;1.05;0.22;;;;;;;;;;4863774;29;20198;-76
2021/10/04 08:19:55;;;;;;;3.78;0.43;;;;;;;;;;4855571;29;20416;-76
2021/10/04 08:22:23;;;;;;;0.88;0.30;;;;;;;;;;4858677;29;20420;-76
2021/10/04 08:24:54;;;;;;;0.95;0.28;;;;;;;;;;4856452;29;20056;-78
2021/10/04 08:27:22;;;;;;;0.77;0.13;;;;;;;;;;4874136;29;20076;-78
2021/10/04 08:29:49;;;;;;;0.60;0.20;;;;;;;;;;4842876;29;20112;-78
2021/10/04 08:32:17;;;;;;;1.63;0.38;;;;;;;;;;4844993;29;20180;-78
2021/10/04 08:34:44;;;;;;;0.73;0.20;;;;;;;;;;4869194;29;20068;-79
2021/10/04 08:37:11;;;;;;;2.25;0.20;;;;;;;;;;4870718;29;20052;-78
2021/10/04 08:39:39;;;;;;;0.80;0.30;;;;;;;;;;4867566;29;20085;-77
2021/10/04 08:42:06;;;;;;;1.17;0.20;;;;;;;;;;4874441;29;20557;-79
2021/10/04 08:44:34;;;;;;;3.13;0.47;;;;;;;;;;4869319;29;20098;-76
2021/10/04 08:47:01;;;;;;;2.00;0.82;;;;;;;;;;4875292;29;20497;-78
2021/10/04 08:49:33;;;;;;;3.13;0.50;;;;;;;;;;4870218;29;20652;-77
2021/10/04 08:52:00;;;;;;;2.83;0.60;;;;;;;;;;4856843;29;20054;-77
2021/10/04 08:54:29;;;;;;;1.55;0.50;;;;;;;;;;4865760;29;20526;-77
2021/10/04 08:56:58;;;;;;;1.83;0.28;;;;;;;;;;4870381;29;20093;-75
2021/10/04 08:59:26;;;;;;;1.67;0.50;;;;;;;;;;4870989;29;20521;-73
2021/10/04 09:02:13;;;;;;;1.80;0.45;;;;;;;;;;4860423;29;20095;-74
2021/10/04 09:04:41;;;;;;;2.08;0.40;;;;;;;;;;4873319;29;20475;-74
2021/10/04 09:07:08;;;;;;;1.55;0.32;;;;;;;;;;4844877;29;20144;-73
2021/10/04 09:09:35;;;;;;;2.28;0.22;;;;;;;;;;4877995;29;20049;-73
2021/10/04 09:12:21;;;;;;;3.03;0.55;;;;;;;;;;4863121;29;20044;-74
2021/10/04 09:14:49;;;;;;;1.60;0.30;;;;;;;;;;4862632;29;20040;-74
2021/10/04 09:17:16;;;;;;;1.33;0.40;;;;;;;;;;4846939;29;20148;-73
2021/10/04 09:19:44;;;;;;;0.60;0.32;;;;;;;;;;4849138;29;20183;-74
2021/10/04 09:22:19;;;;;;;2.20;0.30;;;;;;;;;;4859535;29;20618;-74
2021/10/04 09:24:49;;;;;;;1.07;0.50;;;;;;;;;;4867359;29;20054;-78
2021/10/04 09:27:24;;;;;;;1.50;0.40;;;;;;;;;;4872564;29;20045;-79
2021/10/04 09:29:52;;;;;;;1.38;0.50;;;;;;;;;;4863912;29;20456;-83
2021/10/04 09:32:27;;;;;;;1.20;0.50;;;;;;;;;;4864299;29;20436;-80
2021/10/04 09:35:15;;;;;;;1.42;0.40;;;;;;;;;;4858397;29;20061;-80
2021/10/04 09:37:43;;;;;;;2.83;0.60;;;;;;;;;;4870074;29;20498;-81
2021/10/04 09:40:31;;;;;;;2.60;0.80;;;;;;;;;;4853421;29;20160;-81
2021/10/04 09:42:59;;;;;;;2.30;0.40;;;;;;;;;;4870500;29;20514;-80
2021/10/04 09:45:26;;;;;;;8.15;0.73;;;;;;;;;;4871726;29;20476;-78
2021/10/04 09:47:55;;;;;;;5.07;0.70;;;;;;;;;;4880179;29;20124;-81
2021/10/04 09:50:23;;;;;;;0.80;0.38;;;;;;;;;;4857549;29;20048;-84
2021/10/04 09:52:50;;;;;;;2.28;0.47;;;;;;;;;;4867623;29;20041;-78
2021/10/04 09:55:21;;;;;;;1.95;0.30;;;;;;;;;;4874859;29;20150;-75
2021/10/04 09:57:53;;;;;;;0.85;0.28;;;;;;;;;;4879147;29;20067;-75
2021/10/04 10:00:20;;;;;;;3.72;0.38;;;;;;;;;;4880342;29;20044;-75
2021/10/04 10:02:54;;;;;;;1.58;0.35;;;;;;;;;;4879821;29;20055;-76
2021/10/04 10:05:25;;;;;;;2.75;0.40;;;;;;;;;;4879797;29;20419;-75
2021/10/04 10:07:53;;;;;;;1.58;0.30;;;;;;;;;;4875143;29;20077;-77
2021/10/04 10:10:35;;;;;;;1.85;0.30;;;;;;;;;;4877180;29;20454;-81
2021/10/04 10:13:02;;;;;;;5.20;0.30;;;;;;;;;;4862036;29;20064;-79
2021/10/04 10:15:30;;;;;;;2.67;0.50;;;;;;;;;;4848427;29;20041;-77
2021/10/04 10:18:02;;;;;;;2.00;0.40;;;;;;;;;;4861932;29;20132;-79
2021/10/04 10:20:30;;;;;;;2.50;0.40;;;;;;;;;;4867317;29;20068;-77
2021/10/04 10:22:58;;;;;;;3.28;0.25;;;;;;;;;;4876902;29;20048;-76
2021/10/04 10:25:29;;;;;;;1.50;0.30;;;;;;;;;;4870321;29;20037;-77
2021/10/04 10:27:57;;;;;;;5.68;0.60;;;;;;;;;;4878951;29;20439;-76
2021/10/04 10:30:26;;;;;;;2.72;0.50;;;;;;;;;;4883744;29;20487;-76
2021/10/04 10:32:53;;;;;;;2.72;0.30;;;;;;;;;;4861633;29;20080;-76
2021/10/04 10:35:39;;;;;;;1.90;0.40;;;;;;;;;;4878284;29;20041;-76
2021/10/04 10:38:06;;;;;;;2.67;0.30;;;;;;;;;;4877134;29;20093;-75
2021/10/04 10:40:34;;;;;;;1.83;0.30;;;;;;;;;;4856560;29;20240;-76
2021/10/04 10:43:05;;;;;;;1.83;0.35;;;;;;;;;;4878915;29;20075;-75
2021/10/04 10:45:47;;;;;;;1.83;0.20;;;;;;;;;;4864765;29;20046;-75
2021/10/04 10:48:16;;;;;;;0.73;0.20;;;;;;;;;;4878900;29;20122;-76
2021/10/04 10:50:48;;;;;;;1.33;0.17;;;;;;;;;;4877909;29;20128;-76
2021/10/04 10:53:16;;;;;;;0.87;0.20;;;;;;;;;;4866376;29;20522;-76
2021/10/04 10:55:54;;;;;;;0.35;0.10;;;;;;;;;;4872547;29;20049;-76
2021/10/04 10:58:23;;;;;;;2.83;0.20;;;;;;;;;;4872635;29;20049;-76
2021/10/04 11:00:50;;;;;;;0.65;0.10;;;;;;;;;;4879459;29;20048;-76
2021/10/04 11:03:28;;;;;;;0.98;0.10;;;;;;;;;;4879149;29;20049;-76
2021/10/04 11:06:03;;;;;;;1.20;0.30;;;;;;;;;;4860854;29;20048;-78
2021/10/04 11:08:31;;;;;;;1.33;0.30;;;;;;;;;;4854018;29;20064;-77
2021/10/04 11:10:58;;;;;;;2.72;0.30;;;;;;;;;;4875241;29;20044;-77
2021/10/04 11:13:38;;;;;;;0.55;0.20;;;;;;;;;;4878634;29;20132;-77
2021/10/04 11:16:06;;;;;;;2.00;0.20;;;;;;;;;;4877827;29;20076;-81
2021/10/04 11:18:38;;;;;;;1.55;0.10;;;;;;;;;;4861736;29;20505;-78
2021/10/04 11:21:06;;;;;;;0.60;0.10;;;;;;;;;;4868216;29;20114;-78
2021/10/04 11:23:34;;;;;;;0.40;0.10;;;;;;;;;;4861773;29;20044;-77
2021/10/04 11:26:01;;;;;;;0.68;0.10;;;;;;;;;;4877397;29;20069;-78
2021/10/04 11:28:34;;;;;;;0.65;0.20;;;;;;;;;;4861583;29;20442;-77
2021/10/04 11:31:03;;;;;;;1.02;0.15;;;;;;;;;;4867196;29;20041;-79
2021/10/04 11:33:32;;;;;;;1.27;0.38;;;;;;;;;;4864456;29;20453;-78
2021/10/04 11:36:00;;;;;;;1.77;0.20;;;;;;;;;;4878185;29;20045;-79
2021/10/04 11:38:28;;;;;;;1.77;0.20;;;;;;;;;;4876904;29;20463;-76
2021/10/04 11:40:56;;;;;;;2.40;0.20;;;;;;;;;;4840813;29;20068;-77
2021/10/04 11:43:24;;;;;;;0.65;0.13;;;;;;;;;;4876173;29;20521;-77
2021/10/04 11:45:52;;;;;;;1.95;0.20;;;;;;;;;;4858738;29;20048;-77
2021/10/04 11:48:29;;;;;;;1.58;0.30;;;;;;;;;;4878210;29;20105;-77
2021/10/04 11:50:57;;;;;;;2.13;0.30;;;;;;;;;;4859661;29;20180;-77
2021/10/04 11:53:25;;;;;;;2.58;0.35;;;;;;;;;;4874612;29;20490;-77
2021/10/04 11:55:58;;;;;;;0.82;0.13;;;;;;;;;;4860119;29;20072;-76
2021/10/04 11:58:26;;;;;;;2.47;0.28;;;;;;;;;;4877359;29;20148;-76
2021/10/04 12:00:54;;;;;;;1.58;0.30;;;;;;;;;;4872880;29;20041;-75
2021/10/04 12:03:26;;;;;;;2.10;0.40;;;;;;;;;;4871616;29;20072;-76
2021/10/04 12:05:54;;;;;;;4.15;0.43;;;;;;;;;;4875421;29;20102;-75
2021/10/04 12:08:22;;;;;;;2.35;0.40;;;;;;;;;;4874190;29;20042;-75
2021/10/04 12:10:59;;;;;;;5.25;0.70;;;;;;;;;;4869879;29;20045;-76
2021/10/04 12:13:26;;;;;;;1.20;0.30;;;;;;;;;;4877707;29;20430;-75
2021/10/04 12:15:55;;;;;;;2.15;0.20;;;;;;;;;;4877886;29;20113;-77
2021/10/04 12:18:24;;;;;;;2.90;0.20;;;;;;;;;;4872074;29;20061;-76
2021/10/04 12:20:52;;;;;;;1.58;0.40;;;;;;;;;;4880528;29;20073;-76
2021/10/04 12:23:24;;;;;;;3.10;0.20;;;;;;;;;;4876802;29;20045;-76
2021/10/04 12:25:52;;;;;;;1.10;0.35;;;;;;;;;;4879172;29;20101;-77
2021/10/04 12:28:20;;;;;;;2.92;0.30;;;;;;;;;;4879175;29;20119;-76
2021/10/04 12:30:48;;;;;;;0.82;0.30;;;;;;;;;;4875624;29;20069;-76
2021/10/04 12:33:16;;;;;;;1.65;0.20;;;;;;;;;;4877781;29;20485;-77
2021/10/04 12:35:43;;;;;;;0.40;0.10;;;;;;;;;;4880574;29;20071;-77
2021/10/04 12:38:14;;;;;;;1.90;0.35;;;;;;;;;;4875968;29;20065;-77
2021/10/04 12:40:46;;;;;;;1.15;0.10;;;;;;;;;;4876810;29;20048;-75
2021/10/04 12:43:16;;;;;;;0.88;0.20;;;;;;;;;;4866864;29;20082;-74
2021/10/04 12:45:58;;;;;;;1.75;0.20;;;;;;;;;;4864847;29;20490;-74
2021/10/04 12:48:26;;;;;;;1.17;0.10;;;;;;;;;;4881419;29;20060;-75
2021/10/04 12:51:04;;;;;;;0.90;0.10;;;;;;;;;;4871073;29;20438;-74
2021/10/04 12:53:32;;;;;;;2.50;0.30;;;;;;;;;;4879092;29;20072;-73
2021/10/04 12:56:00;;;;;;;1.23;0.20;;;;;;;;;;4870042;29;20045;-74
2021/10/04 12:58:29;;;;;;;1.33;0.10;;;;;;;;;;4873350;29;20041;-74
2021/10/04 13:01:08;;;;;;;1.00;0.20;;;;;;;;;;4864139;29;20049;-73
2021/10/04 13:04:08;;;;;;;1.55;0.22;;;;;;;;;;4874894;29;20060;-74
2021/10/04 13:06:36;;;;;;;1.25;0.10;;;;;;;;;;4833331;29;20412;-74
2021/10/04 13:09:05;;;;;;;2.38;0.20;;;;;;;;;;4862614;29;20534;-74
2021/10/04 13:11:33;;;;;;;0.85;0.10;;;;;;;;;;4862829;29;20056;-74
2021/10/04 13:14:01;;;;;;;3.33;0.20;;;;;;;;;;4879339;29;20062;-75
2021/10/04 13:16:28;;;;;;;2.92;0.20;;;;;;;;;;4863096;29;20053;-75
2021/10/04 13:18:57;;;;;;;2.35;0.20;;;;;;;;;;4862320;29;20049;-76
2021/10/04 13:21:24;;;;;;;2.92;0.55;;;;;;;;;;4857534;29;20562;-77
2021/10/04 13:23:52;;;;;;;0.75;0.20;;;;;;;;;;4862550;29;20060;-74
2021/10/04 13:26:21;;;;;;;1.33;0.20;;;;;;;;;;4863038;29;20045;-74
2021/10/04 13:28:48;;;;;;;1.27;0.13;;;;;;;;;;4878747;29;20053;-74
2021/10/04 13:31:17;;;;;;;1.35;0.20;;;;;;;;;;4874129;29;20132;-74
2021/10/04 13:33:46;;;;;;;1.55;0.60;;;;;;;;;;4862217;29;20045;-75
2021/10/04 13:36:14;;;;;;;1.00;0.30;;;;;;;;;;4879832;29;20045;-77
2021/10/04 13:38:41;;;;;;;2.92;0.30;;;;;;;;;;4880133;29;20041;-78
2021/10/04 13:41:09;;;;;;;1.02;0.20;;;;;;;;;;4863134;29;20060;-78
2021/10/04 13:43:37;;;;;;;0.68;0.10;;;;;;;;;;4879863;29;20040;-77
2021/10/04 13:46:05;;;;;;;1.35;0.30;;;;;;;;;;4876436;29;20439;-77
2021/10/04 13:48:32;;;;;;;4.25;0.30;;;;;;;;;;4863130;29;20132;-78
2021/10/04 13:51:00;;;;;;;3.03;0.30;;;;;;;;;;4849942;29;20065;-78
2021/10/04 13:53:28;;;;;;;0.95;0.10;;;;;;;;;;4876567;29;20045;-78
2021/10/04 13:55:57;;;;;;;0.93;0.20;;;;;;;;;;4875054;29;20037;-78
2021/10/04 13:58:25;;;;;;;1.95;0.22;;;;;;;;;;4877341;29;20037;-76
2021/10/04 14:00:52;;;;;;;1.63;0.20;;;;;;;;;;4879020;29;20045;-77
2021/10/04 14:03:26;;;;;;;2.20;0.22;;;;;;;;;;4874066;29;20052;-78
2021/10/04 14:05:53;;;;;;;1.38;0.22;;;;;;;;;;4855480;29;20097;-78
2021/10/04 14:08:21;;;;;;;2.92;0.25;;;;;;;;;;4873466;29;20049;-78
2021/10/04 14:10:48;;;;;;;1.40;0.28;;;;;;;;;;4864732;29;20128;-79
2021/10/04 14:13:15;;;;;;;1.50;0.20;;;;;;;;;;4877520;29;20045;-78
2021/10/04 14:15:43;;;;;;;1.27;0.30;;;;;;;;;;4873346;29;20037;-79
2021/10/04 14:18:10;;;;;;;1.23;0.30;;;;;;;;;;4865693;29;20064;-80
2021/10/04 14:20:38;;;;;;;1.95;0.30;;;;;;;;;;4861828;29;20658;-79
2021/10/04 14:23:05;;;;;;;1.35;0.20;;;;;;;;;;4879495;29;20471;-78
2021/10/04 14:25:32;;;;;;;0.20;0.10;;;;;;;;;;4863121;29;20105;-79
2021/10/04 14:28:00;;;;;;;0.65;0.20;;;;;;;;;;4881234;29;20049;-79
2021/10/04 14:30:27;;;;;;;2.13;0.25;;;;;;;;;;4862412;29;20074;-77
2021/10/04 14:33:08;;;;;;;5.80;0.30;;;;;;;;;;4881603;29;20081;-77
2021/10/04 14:35:36;;;;;;;3.13;0.28;;;;;;;;;;4861890;29;20088;-76
2021/10/04 14:38:03;;;;;;;1.88;0.20;;;;;;;;;;4846111;29;20041;-77
2021/10/04 14:40:32;;;;;;;0.60;0.20;;;;;;;;;;4877594;29;20453;-77
2021/10/04 14:42:59;;;;;;;1.55;0.20;;;;;;;;;;4875562;29;20041;-77
2021/10/04 14:45:27;;;;;;;1.50;0.32;;;;;;;;;;4874077;29;20049;-78
2021/10/04 14:47:54;;;;;;;0.60;0.20;;;;;;;;;;4874532;29;20076;-76
2021/10/04 14:50:22;;;;;;;1.08;0.20;;;;;;;;;;4839993;29;20128;-78
2021/10/04 14:52:49;;;;;;;2.97;0.35;;;;;;;;;;4881871;29;20049;-79